Brookline Village, Massachusetts
Current Conditions -  °F | °C
As of 6:54 AM on Friday 19 Dec 2014 (Local Time) from KBOS Reporting Station
Broken Clouds Broken Clouds  
Wind Chill: 26°   Ceiling: 5000
Heat Index: 34°   Visibility: 10mi
Dew Point: 24°   Wind: 10mph
Humidity: 67%   Direction: 290°WNW
Pressure: 29.91"   Gusts: NA
Location:  42.33°N, 71.12°W
Report Text: KBOS 191154Z 29009KT 10SM FEW034 BKN050 01/M04 A2991 RMK AO2 SLP127 T00111044 10028 20011 53012
Loading
Personal Weather Stations






























Interactive Weather Map New forecast layout! Learn more

10-Day Weather Forecast

Advertisements
Track Severe Weather on mobile